Time;durP1;ratioP1;P1;durP2;ratioP2;P2;SDS_P1;SDS_P2;PMS_P1;PMS_P2;Temp;Humidity;BMP_temperature;BMP_pressure;BME280_temperature;BME280_humidity;BME280_pressure;Samples;Min_cycle;Max_cycle;Signal;HPM_P1;HPM_P2
2022/07/28 00:02:14;;;;;;;0.00;0.00;;;;;;;;;;5038587;28;20107;-62
2022/07/28 00:04:39;;;;;;;0.00;0.00;;;;;;;;;;5038697;28;20037;-62
2022/07/28 00:07:05;;;;;;;0.00;0.00;;;;;;;;;;5039210;28;20022;-62
2022/07/28 00:09:30;;;;;;;0.00;0.00;;;;;;;;;;5038925;28;20032;-62
2022/07/28 00:11:55;;;;;;;0.00;0.00;;;;;;;;;;5039149;28;20033;-63
2022/07/28 00:14:21;;;;;;;0.00;0.00;;;;;;;;;;5037444;28;20027;-63
2022/07/28 00:16:46;;;;;;;1.25;1.25;;;;;;;;;;5039176;28;20462;-63
2022/07/28 00:19:11;;;;;;;0.00;0.00;;;;;;;;;;5037569;28;20480;-63
2022/07/28 00:21:37;;;;;;;0.00;0.00;;;;;;;;;;5038132;28;20025;-63
2022/07/28 00:24:02;;;;;;;0.00;0.00;;;;;;;;;;5039484;28;20055;-62
2022/07/28 00:26:27;;;;;;;0.00;0.00;;;;;;;;;;5037602;28;20028;-63
2022/07/28 00:28:52;;;;;;;0.00;0.00;;;;;;;;;;5028601;28;20040;-63
2022/07/28 00:31:18;;;;;;;0.00;0.00;;;;;;;;;;5037209;28;20116;-62
2022/07/28 00:33:43;;;;;;;0.00;0.00;;;;;;;;;;5038591;28;20037;-63
2022/07/28 00:36:08;;;;;;;0.00;0.00;;;;;;;;;;5035254;28;20065;-62
2022/07/28 00:38:34;;;;;;;0.00;0.00;;;;;;;;;;5040436;28;20031;-62
2022/07/28 00:41:11;;;;;;;0.00;0.00;;;;;;;;;;5038697;28;20083;-63
2022/07/28 00:43:37;;;;;;;0.00;0.00;;;;;;;;;;5038098;28;20030;-64
2022/07/28 00:46:02;;;;;;;0.00;0.00;;;;;;;;;;5037509;28;20036;-64
2022/07/28 00:48:28;;;;;;;0.00;0.00;;;;;;;;;;5037690;28;20021;-63
2022/07/28 00:50:53;;;;;;;0.00;0.00;;;;;;;;;;5037532;28;20025;-64
2022/07/28 00:53:18;;;;;;;0.00;0.00;;;;;;;;;;5037234;28;20025;-64
2022/07/28 00:55:43;;;;;;;0.00;0.00;;;;;;;;;;5037893;28;20463;-63
2022/07/28 00:58:09;;;;;;;0.00;0.00;;;;;;;;;;5038346;28;20025;-62
2022/07/28 01:00:34;;;;;;;0.00;0.00;;;;;;;;;;5038072;28;20029;-62
2022/07/28 01:02:59;;;;;;;0.00;0.00;;;;;;;;;;5038869;28;20029;-62
2022/07/28 01:05:30;;;;;;;0.00;0.00;;;;;;;;;;5037878;28;20492;-61
2022/07/28 01:07:58;;;;;;;0.00;0.00;;;;;;;;;;5039759;28;20389;-61
2022/07/28 01:10:45;;;;;;;0.00;0.00;;;;;;;;;;5038211;28;20401;-61
2022/07/28 01:13:21;;;;;;;0.00;0.00;;;;;;;;;;5039100;28;20147;-62
2022/07/28 01:15:58;;;;;;;0.00;0.00;;;;;;;;;;5038616;28;20024;-62
2022/07/28 01:18:24;;;;;;;0.00;0.00;;;;;;;;;;5038149;28;20064;-62
2022/07/28 01:20:52;;;;;;;0.20;0.20;;;;;;;;;;5038176;28;20018;-61
2022/07/28 01:23:17;;;;;;;0.00;0.00;;;;;;;;;;5037509;28;20033;-61
2022/07/28 01:25:54;;;;;;;0.00;0.00;;;;;;;;;;5039123;28;20028;-63
2022/07/28 01:28:22;;;;;;;0.00;0.00;;;;;;;;;;5038587;28;20273;-64
2022/07/28 01:30:53;;;;;;;0.28;0.28;;;;;;;;;;5038708;28;20021;-64
2022/07/28 01:33:28;;;;;;;0.00;0.00;;;;;;;;;;5038313;28;20457;-63
2022/07/28 01:35:56;;;;;;;0.00;0.00;;;;;;;;;;5040550;28;20032;-64
2022/07/28 01:38:22;;;;;;;0.00;0.00;;;;;;;;;;5037843;28;20029;-63
2022/07/28 01:40:48;;;;;;;0.00;0.00;;;;;;;;;;5039154;28;20026;-63
2022/07/28 01:43:23;;;;;;;2.40;1.08;;;;;;;;;;5037694;28;20032;-63
2022/07/28 01:45:48;;;;;;;0.00;0.00;;;;;;;;;;5038814;28;20035;-64
2022/07/28 01:48:15;;;;;;;0.00;0.00;;;;;;;;;;5023930;28;20052;-63
2022/07/28 01:50:41;;;;;;;0.13;0.13;;;;;;;;;;5038022;28;20476;-63
2022/07/28 01:53:08;;;;;;;3.53;0.20;;;;;;;;;;5038060;28;20025;-63
2022/07/28 01:55:34;;;;;;;0.00;0.00;;;;;;;;;;5038666;28;20049;-63
2022/07/28 01:58:00;;;;;;;0.70;0.63;;;;;;;;;;5037417;28;20017;-63
2022/07/28 02:00:26;;;;;;;0.00;0.00;;;;;;;;;;5038684;28;20056;-63
2022/07/28 02:02:52;;;;;;;0.00;0.00;;;;;;;;;;5041739;28;20029;-63
2022/07/28 02:05:20;;;;;;;0.00;0.00;;;;;;;;;;5040100;28;20046;-63
2022/07/28 02:07:46;;;;;;;0.00;0.00;;;;;;;;;;5041501;28;20025;-64
2022/07/28 02:10:14;;;;;;;0.00;0.00;;;;;;;;;;5041217;28;20029;-64
2022/07/28 02:12:40;;;;;;;0.00;0.00;;;;;;;;;;5040952;28;20032;-64
2022/07/28 02:15:07;;;;;;;0.22;0.22;;;;;;;;;;5041330;28;20025;-63
2022/07/28 02:17:33;;;;;;;0.00;0.00;;;;;;;;;;5040564;28;20049;-63
2022/07/28 02:19:58;;;;;;;0.00;0.00;;;;;;;;;;5042862;28;20516;-63
2022/07/28 02:22:25;;;;;;;0.65;0.65;;;;;;;;;;5040667;28;20021;-63
2022/07/28 02:24:52;;;;;;;0.80;0.70;;;;;;;;;;5043760;28;20769;-63
2022/07/28 02:27:32;;;;;;;0.00;0.00;;;;;;;;;;5040667;28;20025;-63
2022/07/28 02:30:09;;;;;;;0.00;0.00;;;;;;;;;;5039327;28;20021;-63
2022/07/28 02:32:37;;;;;;;2.95;2.72;;;;;;;;;;5040139;28;20017;-63
2022/07/28 02:35:07;;;;;;;0.00;0.00;;;;;;;;;;5043520;28;20033;-63
2022/07/28 02:37:37;;;;;;;0.20;0.20;;;;;;;;;;5039790;28;20076;-63
2022/07/28 02:40:04;;;;;;;0.00;0.00;;;;;;;;;;5040113;28;20033;-63
2022/07/28 02:42:31;;;;;;;0.57;0.30;;;;;;;;;;5040366;28;20085;-63
2022/07/28 02:45:02;;;;;;;0.00;0.00;;;;;;;;;;5043171;28;20429;-63
2022/07/28 02:47:31;;;;;;;0.00;0.00;;;;;;;;;;5039122;28;20013;-63
2022/07/28 02:49:57;;;;;;;0.00;0.00;;;;;;;;;;5039857;28;20445;-63
2022/07/28 02:52:24;;;;;;;0.00;0.00;;;;;;;;;;5041822;28;20022;-63
2022/07/28 02:54:50;;;;;;;2.05;0.22;;;;;;;;;;5039934;28;20494;-63
2022/07/28 02:57:16;;;;;;;0.00;0.00;;;;;;;;;;5040063;28;20020;-63
2022/07/28 02:59:41;;;;;;;0.00;0.00;;;;;;;;;;5039843;28;20389;-63
2022/07/28 03:02:07;;;;;;;0.00;0.00;;;;;;;;;;5039498;28;21921;-63
2022/07/28 03:07:16;;;;;;;0.00;0.00;;;;;;;;;;5039986;28;20500;-63
2022/07/28 03:09:43;;;;;;;0.00;0.00;;;;;;;;;;5039780;28;20025;-63
2022/07/28 03:12:10;;;;;;;0.00;0.00;;;;;;;;;;5038129;28;20050;-63
2022/07/28 03:14:35;;;;;;;0.47;0.47;;;;;;;;;;5038835;28;20433;-63
2022/07/28 03:17:00;;;;;;;0.00;0.00;;;;;;;;;;5039556;28;20105;-63
2022/07/28 03:19:25;;;;;;;0.30;0.30;;;;;;;;;;5038697;28;20472;-63
2022/07/28 03:21:52;;;;;;;0.00;0.00;;;;;;;;;;5039774;28;20029;-63
2022/07/28 03:24:19;;;;;;;0.00;0.00;;;;;;;;;;5039079;28;20020;-63
2022/07/28 03:26:48;;;;;;;0.85;0.85;;;;;;;;;;5038301;28;20036;-63
2022/07/28 03:29:14;;;;;;;0.00;0.00;;;;;;;;;;5039498;28;20024;-64
2022/07/28 03:31:40;;;;;;;0.00;0.00;;;;;;;;;;5040177;28;20388;-64
2022/07/28 03:34:05;;;;;;;0.22;0.22;;;;;;;;;;5033337;28;20105;-64
2022/07/28 03:36:35;;;;;;;0.00;0.00;;;;;;;;;;5036075;28;20025;-64
2022/07/28 03:39:01;;;;;;;0.00;0.00;;;;;;;;;;5035105;28;20025;-64
2022/07/28 03:41:27;;;;;;;0.00;0.00;;;;;;;;;;5029276;28;20044;-63
2022/07/28 03:43:52;;;;;;;5.95;0.60;;;;;;;;;;5037454;28;20072;-64
2022/07/28 03:46:17;;;;;;;0.20;0.20;;;;;;;;;;5032251;28;20021;-64
2022/07/28 03:48:43;;;;;;;0.00;0.00;;;;;;;;;;5028768;28;20053;-63
2022/07/28 03:51:08;;;;;;;0.00;0.00;;;;;;;;;;5029103;28;20119;-63
2022/07/28 03:53:34;;;;;;;0.00;0.00;;;;;;;;;;5028906;28;20017;-63
2022/07/28 03:55:59;;;;;;;0.00;0.00;;;;;;;;;;5032915;28;20013;-63
2022/07/28 03:58:25;;;;;;;0.00;0.00;;;;;;;;;;5028452;28;20013;-64
2022/07/28 04:00:50;;;;;;;0.00;0.00;;;;;;;;;;5028737;28;20025;-64
2022/07/28 04:03:17;;;;;;;0.00;0.00;;;;;;;;;;5039399;28;20044;-64
2022/07/28 04:05:43;;;;;;;0.00;0.00;;;;;;;;;;5029819;28;20041;-64
2022/07/28 04:08:08;;;;;;;0.00;0.00;;;;;;;;;;5028719;28;20556;-64
2022/07/28 04:10:33;;;;;;;0.00;0.00;;;;;;;;;;5028389;28;20115;-64
2022/07/28 04:12:59;;;;;;;0.00;0.00;;;;;;;;;;5029280;28;20029;-64
2022/07/28 04:15:25;;;;;;;0.00;0.00;;;;;;;;;;5028583;28;20071;-64
2022/07/28 04:17:50;;;;;;;0.00;0.00;;;;;;;;;;5028995;28;20100;-64
2022/07/28 04:20:16;;;;;;;0.00;0.00;;;;;;;;;;5028967;28;20145;-63
2022/07/28 04:22:42;;;;;;;0.00;0.00;;;;;;;;;;5024549;28;20096;-64
2022/07/28 04:25:07;;;;;;;0.00;0.00;;;;;;;;;;5017514;28;20087;-64
2022/07/28 04:27:35;;;;;;;0.00;0.00;;;;;;;;;;5018422;28;20037;-64
2022/07/28 04:30:02;;;;;;;0.00;0.00;;;;;;;;;;5007103;28;20037;-64
2022/07/28 04:32:27;;;;;;;0.00;0.00;;;;;;;;;;5023433;28;20022;-64
2022/07/28 04:34:53;;;;;;;0.00;0.00;;;;;;;;;;5028610;28;20036;-64
2022/07/28 04:37:18;;;;;;;0.00;0.00;;;;;;;;;;5029012;28;20029;-64
2022/07/28 04:39:44;;;;;;;0.00;0.00;;;;;;;;;;5028156;28;20013;-64
2022/07/28 04:42:10;;;;;;;0.00;0.00;;;;;;;;;;5028346;28;20382;-64
2022/07/28 04:44:39;;;;;;;0.00;0.00;;;;;;;;;;5026538;28;20025;-65
2022/07/28 04:47:04;;;;;;;0.00;0.00;;;;;;;;;;5028331;28;20026;-65
2022/07/28 04:49:29;;;;;;;0.00;0.00;;;;;;;;;;5027835;28;20037;-64
2022/07/28 04:51:54;;;;;;;0.00;0.00;;;;;;;;;;5027482;28;20516;-64
2022/07/28 04:54:20;;;;;;;0.00;0.00;;;;;;;;;;5018588;28;20268;-65
2022/07/28 04:56:45;;;;;;;0.00;0.00;;;;;;;;;;5018879;28;20549;-64
2022/07/28 04:59:10;;;;;;;0.00;0.00;;;;;;;;;;5027982;28;20524;-65
2022/07/28 05:01:37;;;;;;;0.00;0.00;;;;;;;;;;5028076;28;20052;-64
2022/07/28 05:04:03;;;;;;;0.00;0.00;;;;;;;;;;5027880;28;20041;-64
2022/07/28 05:06:29;;;;;;;0.00;0.00;;;;;;;;;;5027876;28;20037;-65
2022/07/28 05:08:54;;;;;;;0.00;0.00;;;;;;;;;;5022438;28;20029;-64
2022/07/28 05:11:19;;;;;;;0.00;0.00;;;;;;;;;;5018556;28;20040;-65
2022/07/28 05:13:44;;;;;;;0.00;0.00;;;;;;;;;;5017908;28;20032;-65
2022/07/28 05:16:09;;;;;;;0.00;0.00;;;;;;;;;;5018301;28;20020;-65
2022/07/28 05:18:35;;;;;;;0.00;0.00;;;;;;;;;;5010082;28;20374;-65
2022/07/28 05:21:00;;;;;;;0.00;0.00;;;;;;;;;;5026883;28;20120;-64
2022/07/28 05:23:25;;;;;;;0.00;0.00;;;;;;;;;;5020942;28;20030;-65
2022/07/28 05:25:51;;;;;;;0.00;0.00;;;;;;;;;;5020032;28;20030;-65
2022/07/28 05:28:16;;;;;;;0.00;0.00;;;;;;;;;;5026546;28;20080;-65
2022/07/28 05:30:41;;;;;;;0.00;0.00;;;;;;;;;;5027518;28;20025;-65
2022/07/28 05:33:06;;;;;;;0.47;0.47;;;;;;;;;;5028075;28;20105;-64
2022/07/28 05:35:32;;;;;;;0.00;0.00;;;;;;;;;;5028719;28;20021;-64
2022/07/28 05:37:57;;;;;;;0.00;0.00;;;;;;;;;;5031851;28;20013;-64
2022/07/28 05:40:22;;;;;;;0.38;0.38;;;;;;;;;;5030579;28;20021;-64
2022/07/28 05:42:48;;;;;;;0.05;0.05;;;;;;;;;;5031418;28;20025;-64
2022/07/28 05:45:13;;;;;;;0.00;0.00;;;;;;;;;;5031604;28;20431;-64
2022/07/28 05:47:49;;;;;;;0.00;0.00;;;;;;;;;;5030911;28;20616;-64
2022/07/28 05:50:15;;;;;;;0.00;0.00;;;;;;;;;;5031690;28;20105;-64
2022/07/28 05:52:41;;;;;;;0.00;0.00;;;;;;;;;;5025907;28;20534;-64
2022/07/28 05:55:07;;;;;;;0.00;0.00;;;;;;;;;;5025125;28;20109;-64
2022/07/28 05:57:32;;;;;;;0.10;0.05;;;;;;;;;;5031384;28;20421;-64
2022/07/28 05:59:57;;;;;;;0.00;0.00;;;;;;;;;;5031766;28;20033;-65
2022/07/28 06:02:22;;;;;;;0.00;0.00;;;;;;;;;;5031533;28;20272;-64
2022/07/28 06:04:47;;;;;;;0.00;0.00;;;;;;;;;;5035381;28;20048;-64
2022/07/28 06:07:13;;;;;;;0.00;0.00;;;;;;;;;;5041010;28;20393;-65
2022/07/28 06:09:38;;;;;;;0.73;0.30;;;;;;;;;;5040791;28;20494;-64
2022/07/28 06:12:03;;;;;;;0.00;0.00;;;;;;;;;;5041446;28;20028;-64
2022/07/28 06:14:29;;;;;;;0.00;0.00;;;;;;;;;;5040593;28;20024;-64
2022/07/28 06:16:54;;;;;;;0.73;0.73;;;;;;;;;;5041154;28;20025;-64
2022/07/28 06:19:19;;;;;;;0.00;0.00;;;;;;;;;;5040991;28;20033;-64
2022/07/28 06:21:44;;;;;;;0.00;0.00;;;;;;;;;;5039645;28;20029;-64
2022/07/28 06:24:09;;;;;;;0.00;0.00;;;;;;;;;;5044363;28;20282;-65
2022/07/28 06:26:38;;;;;;;0.00;0.00;;;;;;;;;;5040551;28;20374;-65
2022/07/28 06:29:04;;;;;;;0.00;0.00;;;;;;;;;;5039985;28;20474;-66
2022/07/28 06:31:29;;;;;;;0.00;0.00;;;;;;;;;;5040007;28;20087;-66
2022/07/28 06:33:54;;;;;;;0.00;0.00;;;;;;;;;;5041257;28;20466;-64
2022/07/28 06:36:19;;;;;;;0.13;0.13;;;;;;;;;;5040712;28;20025;-65
2022/07/28 06:38:45;;;;;;;0.00;0.00;;;;;;;;;;5040223;28;20025;-65
2022/07/28 06:41:10;;;;;;;0.00;0.00;;;;;;;;;;5040935;28;20025;-64
2022/07/28 06:43:35;;;;;;;0.00;0.00;;;;;;;;;;5040655;28;20553;-65
2022/07/28 06:46:00;;;;;;;0.00;0.00;;;;;;;;;;5040517;28;20025;-64
2022/07/28 06:48:26;;;;;;;0.00;0.00;;;;;;;;;;5039666;28;20500;-65
2022/07/28 06:50:51;;;;;;;0.77;0.77;;;;;;;;;;5039949;28;20314;-65
2022/07/28 06:53:16;;;;;;;0.57;0.10;;;;;;;;;;5043600;28;20028;-65
2022/07/28 06:55:41;;;;;;;0.00;0.00;;;;;;;;;;5040414;28;20052;-65
2022/07/28 06:58:07;;;;;;;3.30;0.22;;;;;;;;;;5039926;28;20106;-65
2022/07/28 07:00:32;;;;;;;0.00;0.00;;;;;;;;;;5039527;28;20021;-65
2022/07/28 07:02:57;;;;;;;0.00;0.00;;;;;;;;;;5040231;28;20143;-65
2022/07/28 07:05:22;;;;;;;0.00;0.00;;;;;;;;;;5032634;28;20083;-65
2022/07/28 07:07:48;;;;;;;0.10;0.10;;;;;;;;;;5029573;28;20033;-65
2022/07/28 07:10:13;;;;;;;0.00;0.00;;;;;;;;;;5029675;28;20018;-65
2022/07/28 07:12:38;;;;;;;0.00;0.00;;;;;;;;;;5029733;28;20029;-65
2022/07/28 07:15:04;;;;;;;0.03;0.03;;;;;;;;;;5029754;28;20021;-65
2022/07/28 07:17:29;;;;;;;0.00;0.00;;;;;;;;;;5024859;28;20108;-65
2022/07/28 07:19:54;;;;;;;0.00;0.00;;;;;;;;;;5019873;28;20022;-65
2022/07/28 07:22:19;;;;;;;0.20;0.20;;;;;;;;;;5006253;28;20071;-65
2022/07/28 07:24:45;;;;;;;0.00;0.00;;;;;;;;;;5028393;28;20405;-65
2022/07/28 07:27:10;;;;;;;0.17;0.13;;;;;;;;;;5029160;28;21008;-65
2022/07/28 07:29:35;;;;;;;0.00;0.00;;;;;;;;;;5029520;28;20307;-66
2022/07/28 07:32:00;;;;;;;0.00;0.00;;;;;;;;;;5029890;28;20284;-66
2022/07/28 07:34:26;;;;;;;0.00;0.00;;;;;;;;;;5029402;28;20047;-66
2022/07/28 07:36:51;;;;;;;0.00;0.00;;;;;;;;;;5029450;28;20461;-65
2022/07/28 07:39:16;;;;;;;0.00;0.00;;;;;;;;;;5029557;28;20270;-66
2022/07/28 07:41:42;;;;;;;0.00;0.00;;;;;;;;;;5028899;28;20105;-66
2022/07/28 07:44:08;;;;;;;0.00;0.00;;;;;;;;;;5028158;28;20014;-66
2022/07/28 07:46:35;;;;;;;0.20;0.20;;;;;;;;;;5024393;28;20406;-66
2022/07/28 07:49:00;;;;;;;0.55;0.55;;;;;;;;;;5019819;28;20029;-66
2022/07/28 07:51:25;;;;;;;0.00;0.00;;;;;;;;;;5026598;28;20025;-66
2022/07/28 07:53:50;;;;;;;0.00;0.00;;;;;;;;;;5028665;28;20097;-65
2022/07/28 07:56:17;;;;;;;0.00;0.00;;;;;;;;;;5027532;28;20373;-65
2022/07/28 07:58:42;;;;;;;0.00;0.00;;;;;;;;;;5027857;28;20803;-65
2022/07/28 08:01:07;;;;;;;1.60;0.33;;;;;;;;;;5029039;28;20125;-66
2022/07/28 08:03:32;;;;;;;6.40;0.20;;;;;;;;;;5028046;28;20355;-66
2022/07/28 08:05:58;;;;;;;0.23;0.23;;;;;;;;;;5037460;28;20363;-65
2022/07/28 08:08:23;;;;;;;0.00;0.00;;;;;;;;;;5038647;28;20257;-66
2022/07/28 08:11:14;;;;;;;0.00;0.00;;;;;;;;;;5039270;28;20025;-66
2022/07/28 08:13:40;;;;;;;0.00;0.00;;;;;;;;;;5031351;28;20036;-67
2022/07/28 08:16:05;;;;;;;0.00;0.00;;;;;;;;;;5038957;28;20469;-64
2022/07/28 08:18:30;;;;;;;0.45;0.45;;;;;;;;;;5039118;28;20910;-65
2022/07/28 08:20:56;;;;;;;0.00;0.00;;;;;;;;;;5040719;28;20067;-65
2022/07/28 08:23:21;;;;;;;0.00;0.00;;;;;;;;;;5039024;28;20025;-66
2022/07/28 08:25:47;;;;;;;0.00;0.00;;;;;;;;;;5037922;28;20431;-65
2022/07/28 08:28:12;;;;;;;0.10;0.10;;;;;;;;;;5038355;28;20725;-65
2022/07/28 08:30:37;;;;;;;0.00;0.00;;;;;;;;;;5038175;28;20124;-65
2022/07/28 08:33:02;;;;;;;0.00;0.00;;;;;;;;;;5038141;28;20680;-65
2022/07/28 08:35:28;;;;;;;1.65;0.38;;;;;;;;;;5039757;28;20314;-66
2022/07/28 08:37:53;;;;;;;0.00;0.00;;;;;;;;;;5038234;28;20028;-65
2022/07/28 08:40:18;;;;;;;0.08;0.08;;;;;;;;;;5038853;28;20026;-65
2022/07/28 08:42:43;;;;;;;0.00;0.00;;;;;;;;;;5037619;28;20131;-65
2022/07/28 08:45:09;;;;;;;0.00;0.00;;;;;;;;;;5038546;28;20175;-65
2022/07/28 08:47:35;;;;;;;0.00;0.00;;;;;;;;;;5038932;28;20024;-65
2022/07/28 08:50:00;;;;;;;0.00;0.00;;;;;;;;;;5039370;28;20033;-65
2022/07/28 08:52:29;;;;;;;0.00;0.00;;;;;;;;;;5037656;28;20106;-65
2022/07/28 08:54:56;;;;;;;0.00;0.00;;;;;;;;;;5037513;28;20385;-65
2022/07/28 08:57:25;;;;;;;0.00;0.00;;;;;;;;;;5035057;28;20029;-65
2022/07/28 08:59:50;;;;;;;0.00;0.00;;;;;;;;;;5039134;28;20461;-67
2022/07/28 09:02:15;;;;;;;0.00;0.00;;;;;;;;;;5041323;28;20026;-65
2022/07/28 09:04:41;;;;;;;0.00;0.00;;;;;;;;;;5034237;28;20041;-66
2022/07/28 09:07:06;;;;;;;0.00;0.00;;;;;;;;;;5025995;28;20033;-65
2022/07/28 09:09:32;;;;;;;0.00;0.00;;;;;;;;;;5023975;28;20061;-66
2022/07/28 09:11:57;;;;;;;0.00;0.00;;;;;;;;;;5004122;28;20045;-66
2022/07/28 09:14:23;;;;;;;0.00;0.00;;;;;;;;;;5022058;28;20029;-66
2022/07/28 09:16:49;;;;;;;0.75;0.43;;;;;;;;;;5024597;28;20345;-66
2022/07/28 09:19:14;;;;;;;0.00;0.00;;;;;;;;;;5027510;28;20029;-66
2022/07/28 09:21:40;;;;;;;0.00;0.00;;;;;;;;;;5031657;28;20030;-65
2022/07/28 09:24:06;;;;;;;0.20;0.20;;;;;;;;;;5028815;28;20284;-66
2022/07/28 09:26:31;;;;;;;0.00;0.00;;;;;;;;;;5023785;28;20499;-67
2022/07/28 09:28:57;;;;;;;0.25;0.25;;;;;;;;;;5028102;28;20029;-66
2022/07/28 09:31:24;;;;;;;0.10;0.10;;;;;;;;;;5007523;28;20025;-66
2022/07/28 09:33:59;;;;;;;0.00;0.00;;;;;;;;;;5023652;28;20037;-66
2022/07/28 09:36:25;;;;;;;0.40;0.40;;;;;;;;;;5021779;28;20014;-66
2022/07/28 09:38:50;;;;;;;0.20;0.20;;;;;;;;;;5021313;28;20449;-65
2022/07/28 09:41:20;;;;;;;0.00;0.00;;;;;;;;;;5022560;28;20025;-64
2022/07/28 09:43:46;;;;;;;0.00;0.00;;;;;;;;;;5022289;28;20022;-65
2022/07/28 09:46:12;;;;;;;0.00;0.00;;;;;;;;;;5018465;28;20096;-65
2022/07/28 09:48:50;;;;;;;0.00;0.00;;;;;;;;;;5031235;28;20373;-66
2022/07/28 09:51:41;;;;;;;0.00;0.00;;;;;;;;;;5024315;28;20021;-65
2022/07/28 09:54:07;;;;;;;1.45;1.10;;;;;;;;;;5024711;28;20490;-65
2022/07/28 09:56:32;;;;;;;0.45;0.45;;;;;;;;;;5031298;28;20076;-64
2022/07/28 09:59:02;;;;;;;0.30;0.30;;;;;;;;;;5030746;28;20118;-65
2022/07/28 10:01:27;;;;;;;0.00;0.00;;;;;;;;;;5030863;28;20435;-66
2022/07/28 10:03:56;;;;;;;0.00;0.00;;;;;;;;;;5025506;28;20112;-66
2022/07/28 10:06:26;;;;;;;0.00;0.00;;;;;;;;;;5042305;28;20037;-65
2022/07/28 10:08:52;;;;;;;0.00;0.00;;;;;;;;;;5040528;28;20032;-64
2022/07/28 10:11:18;;;;;;;0.00;0.00;;;;;;;;;;5041168;28;20075;-65
2022/07/28 10:13:50;;;;;;;0.00;0.00;;;;;;;;;;5040915;28;20035;-65
2022/07/28 10:16:15;;;;;;;0.00;0.00;;;;;;;;;;5042531;28;20028;-65
2022/07/28 10:18:40;;;;;;;7.47;0.55;;;;;;;;;;5040508;28;20029;-66
2022/07/28 10:21:12;;;;;;;0.20;0.20;;;;;;;;;;5039929;28;20028;-66
2022/07/28 10:23:41;;;;;;;0.13;0.13;;;;;;;;;;5040273;28;20021;-64
2022/07/28 10:26:06;;;;;;;;;;;;;;;;;;5041538;28;20025;-65
2022/07/28 10:28:33;;;;;;;0.03;0.03;;;;;;;;;;5040810;28;20008;-64
2022/07/28 10:31:00;;;;;;;0.05;0.05;;;;;;;;;;5040813;28;20045;-66
2022/07/28 10:33:28;;;;;;;0.00;0.00;;;;;;;;;;5040802;28;20041;-65
2022/07/28 10:35:53;;;;;;;0.00;0.00;;;;;;;;;;5040125;28;20036;-65
2022/07/28 10:38:20;;;;;;;0.00;0.00;;;;;;;;;;5040180;28;20469;-65
2022/07/28 10:40:46;;;;;;;0.00;0.00;;;;;;;;;;5039719;28;20017;-66
2022/07/28 10:43:12;;;;;;;0.00;0.00;;;;;;;;;;5027996;28;20394;-66
2022/07/28 10:45:38;;;;;;;0.70;0.70;;;;;;;;;;5040169;28;20066;-65
2022/07/28 10:48:06;;;;;;;0.63;0.63;;;;;;;;;;5039980;28;20100;-64
2022/07/28 10:50:33;;;;;;;0.00;0.00;;;;;;;;;;5040247;28;20033;-65
2022/07/28 10:52:58;;;;;;;0.00;0.00;;;;;;;;;;5037740;28;20600;-66
2022/07/28 10:55:44;;;;;;;7.68;0.50;;;;;;;;;;5040242;28;20099;-65
2022/07/28 10:58:19;;;;;;;0.05;0.05;;;;;;;;;;5039739;28;20021;-65
2022/07/28 11:00:45;;;;;;;0.75;0.75;;;;;;;;;;5038677;28;20549;-66
2022/07/28 11:03:30;;;;;;;1.08;0.30;;;;;;;;;;5040104;28;20032;-65
2022/07/28 11:05:56;;;;;;;0.00;0.00;;;;;;;;;;5020249;28;20045;-65
2022/07/28 11:08:21;;;;;;;0.00;0.00;;;;;;;;;;5017668;28;20035;-65
2022/07/28 11:10:47;;;;;;;0.70;0.70;;;;;;;;;;5018874;28;20030;-65
2022/07/28 11:13:27;;;;;;;0.00;0.00;;;;;;;;;;5019085;28;20276;-65
2022/07/28 11:15:52;;;;;;;0.63;0.15;;;;;;;;;;5018249;28;20017;-66
2022/07/28 11:18:18;;;;;;;0.00;0.00;;;;;;;;;;5019740;28;20021;-64
2022/07/28 11:20:49;;;;;;;0.20;0.20;;;;;;;;;;5019098;28;20039;-65
2022/07/28 11:23:33;;;;;;;0.00;0.00;;;;;;;;;;5012090;28;20053;-66
2022/07/28 11:26:17;;;;;;;0.00;0.00;;;;;;;;;;5014963;28;20025;-65
2022/07/28 11:29:02;;;;;;;0.00;0.00;;;;;;;;;;5009105;28;20026;-66
2022/07/28 11:31:43;;;;;;;0.30;0.28;;;;;;;;;;5013583;28;20037;-64
2022/07/28 11:34:14;;;;;;;1.85;1.58;;;;;;;;;;5008710;28;20033;-65
2022/07/28 11:36:58;;;;;;;0.10;0.10;;;;;;;;;;5016990;28;20095;-65
2022/07/28 11:39:24;;;;;;;0.50;0.43;;;;;;;;;;5019802;28;20029;-65
2022/07/28 11:41:50;;;;;;;0.00;0.00;;;;;;;;;;5010395;28;20071;-66
2022/07/28 11:44:24;;;;;;;0.10;0.10;;;;;;;;;;5010337;28;20050;-66
2022/07/28 11:46:49;;;;;;;0.00;0.00;;;;;;;;;;5016846;28;20064;-64
2022/07/28 11:49:16;;;;;;;0.00;0.00;;;;;;;;;;5013030;28;20056;-65
2022/07/28 11:52:01;;;;;;;0.52;0.17;;;;;;;;;;5019771;28;20489;-66
2022/07/28 11:54:26;;;;;;;0.00;0.00;;;;;;;;;;5012109;28;20028;-64
2022/07/28 11:56:58;;;;;;;0.00;0.00;;;;;;;;;;5014028;28;20100;-65
2022/07/28 11:59:23;;;;;;;0.00;0.00;;;;;;;;;;5018465;28;20475;-65
2022/07/28 12:01:52;;;;;;;0.00;0.00;;;;;;;;;;4999593;28;20060;-65
2022/07/28 12:04:18;;;;;;;0.00;0.00;;;;;;;;;;5022165;28;20530;-64
2022/07/28 12:06:45;;;;;;;0.52;0.52;;;;;;;;;;5028354;28;20060;-64
2022/07/28 12:09:12;;;;;;;0.20;0.20;;;;;;;;;;5027393;28;20442;-64
2022/07/28 12:11:40;;;;;;;0.00;0.00;;;;;;;;;;5009958;28;20037;-65
2022/07/28 12:14:10;;;;;;;0.55;0.55;;;;;;;;;;5028863;28;20021;-64
2022/07/28 12:16:36;;;;;;;0.40;0.40;;;;;;;;;;5019440;28;20032;-65
2022/07/28 12:19:02;;;;;;;0.08;0.08;;;;;;;;;;5018237;28;20029;-65
2022/07/28 12:21:45;;;;;;;0.00;0.00;;;;;;;;;;5018719;28;20068;-65
2022/07/28 12:24:12;;;;;;;0.00;0.00;;;;;;;;;;5018867;28;20030;-65
2022/07/28 12:26:38;;;;;;;6.03;0.88;;;;;;;;;;5018337;28;20369;-64
2022/07/28 12:29:04;;;;;;;0.08;0.08;;;;;;;;;;5019254;28;20025;-64
2022/07/28 12:31:31;;;;;;;0.00;0.00;;;;;;;;;;5011827;28;20375;-65
2022/07/28 12:34:00;;;;;;;0.00;0.00;;;;;;;;;;5016428;28;20032;-65
2022/07/28 12:36:26;;;;;;;0.00;0.00;;;;;;;;;;5023989;28;20044;-65
2022/07/28 12:38:52;;;;;;;0.00;0.00;;;;;;;;;;5022640;28;20373;-65
2022/07/28 12:41:18;;;;;;;0.85;0.52;;;;;;;;;;5028254;28;20017;-65
2022/07/28 12:43:50;;;;;;;0.00;0.00;;;;;;;;;;5017745;28;20083;-65
2022/07/28 12:46:20;;;;;;;0.00;0.00;;;;;;;;;;5018490;28;20458;-65
2022/07/28 12:48:47;;;;;;;0.00;0.00;;;;;;;;;;5017866;28;20026;-65
2022/07/28 12:51:31;;;;;;;0.00;0.00;;;;;;;;;;5018135;28;20029;-65
2022/07/28 12:53:57;;;;;;;0.20;0.20;;;;;;;;;;5017712;28;20024;-65
2022/07/28 12:56:22;;;;;;;0.00;0.00;;;;;;;;;;5021718;28;20017;-65
2022/07/28 12:58:49;;;;;;;0.40;0.40;;;;;;;;;;5017602;28;20367;-65
2022/07/28 13:01:15;;;;;;;0.00;0.00;;;;;;;;;;5025866;28;20659;-65
2022/07/28 13:03:46;;;;;;;2.60;1.27;;;;;;;;;;5017892;28;20029;-65
2022/07/28 13:06:15;;;;;;;3.53;1.25;;;;;;;;;;5037210;28;20022;-64
2022/07/28 13:08:41;;;;;;;0.00;0.00;;;;;;;;;;5038705;28;20060;-64
2022/07/28 13:11:07;;;;;;;0.10;0.10;;;;;;;;;;5038215;28;20408;-64
2022/07/28 13:13:49;;;;;;;0.00;0.00;;;;;;;;;;5038301;28;20028;-64
2022/07/28 13:16:16;;;;;;;0.00;0.00;;;;;;;;;;5039859;28;20401;-64
2022/07/28 13:18:42;;;;;;;0.00;0.00;;;;;;;;;;5037425;28;20545;-64
2022/07/28 13:21:08;;;;;;;0.00;0.00;;;;;;;;;;5036689;28;20022;-64
2022/07/28 13:23:33;;;;;;;0.00;0.00;;;;;;;;;;5040046;28;20351;-64
2022/07/28 13:25:58;;;;;;;0.13;0.13;;;;;;;;;;5038305;28;20128;-65
2022/07/28 13:28:27;;;;;;;3.50;0.40;;;;;;;;;;5038013;28;20029;-64
2022/07/28 13:30:52;;;;;;;0.00;0.00;;;;;;;;;;5039236;28;20025;-64
2022/07/28 13:33:18;;;;;;;0.47;0.38;;;;;;;;;;5038705;28;20072;-64
2022/07/28 13:35:44;;;;;;;0.15;0.15;;;;;;;;;;5037959;28;20021;-64
2022/07/28 13:38:09;;;;;;;0.00;0.00;;;;;;;;;;5037983;28;20026;-63
2022/07/28 13:40:34;;;;;;;0.90;0.57;;;;;;;;;;5036128;28;20101;-64
2022/07/28 13:42:59;;;;;;;0.20;0.05;;;;;;;;;;5037689;28;20029;-64
2022/07/28 13:45:24;;;;;;;0.20;0.20;;;;;;;;;;5040360;28;20062;-63
2022/07/28 13:47:50;;;;;;;0.77;0.53;;;;;;;;;;5035664;28;20052;-63
2022/07/28 13:50:15;;;;;;;0.20;0.20;;;;;;;;;;5037747;28;20271;-63
2022/07/28 13:52:40;;;;;;;0.37;0.37;;;;;;;;;;5034050;28;20109;-61
2022/07/28 13:55:06;;;;;;;0.23;0.23;;;;;;;;;;5036416;28;20264;-61
2022/07/28 13:57:31;;;;;;;0.00;0.00;;;;;;;;;;5039440;28;20264;-63
2022/07/28 13:59:56;;;;;;;0.00;0.00;;;;;;;;;;5040644;28;20025;-62
2022/07/28 14:02:21;;;;;;;0.00;0.00;;;;;;;;;;5041235;28;20032;-63
2022/07/28 14:04:47;;;;;;;0.93;0.93;;;;;;;;;;5040131;28;20037;-63
2022/07/28 14:07:12;;;;;;;0.00;0.00;;;;;;;;;;5043332;28;20263;-62
2022/07/28 14:09:37;;;;;;;0.00;0.00;;;;;;;;;;5039783;28;20035;-61
2022/07/28 14:12:03;;;;;;;0.00;0.00;;;;;;;;;;5040099;28;20037;-61
2022/07/28 14:14:28;;;;;;;0.10;0.10;;;;;;;;;;5041494;28;20044;-63
2022/07/28 14:16:53;;;;;;;0.00;0.00;;;;;;;;;;5040899;28;20056;-62
2022/07/28 14:19:18;;;;;;;0.00;0.00;;;;;;;;;;5041064;28;20571;-62
2022/07/28 14:21:44;;;;;;;0.00;0.00;;;;;;;;;;5040441;28;20291;-63
2022/07/28 14:24:10;;;;;;;0.95;0.95;;;;;;;;;;5040896;28;20365;-63
2022/07/28 14:26:35;;;;;;;0.00;0.00;;;;;;;;;;5040420;28;20025;-63
2022/07/28 14:29:00;;;;;;;0.00;0.00;;;;;;;;;;5040508;28;20060;-63
2022/07/28 14:31:25;;;;;;;0.00;0.00;;;;;;;;;;5040475;28;20457;-64
2022/07/28 14:33:51;;;;;;;0.07;0.07;;;;;;;;;;5042108;28;20756;-63
2022/07/28 14:36:16;;;;;;;1.55;0.47;;;;;;;;;;5041035;28;20351;-63
2022/07/28 14:38:41;;;;;;;0.00;0.00;;;;;;;;;;5040841;28;20171;-63
2022/07/28 14:41:07;;;;;;;0.00;0.00;;;;;;;;;;5040510;28;20044;-62
2022/07/28 14:43:32;;;;;;;0.00;0.00;;;;;;;;;;5040423;28;20370;-61
2022/07/28 14:45:57;;;;;;;0.00;0.00;;;;;;;;;;5042310;28;21101;-61